sensor_id;sensor_type;location;lat;lon;timestamp;pressure;altitude;pressure_sealevel;temperature;humidity
33189;BME280;52601;53.070;10.600;2022-12-18T00:02:37;102696.75;;;-5.62;100.00
33189;BME280;52601;53.070;10.600;2022-12-18T00:05:23;102701.88;;;-5.44;100.00
33189;BME280;52601;53.070;10.600;2022-12-18T00:08:08;102696.03;;;-5.59;100.00
33189;BME280;52601;53.070;10.600;2022-12-18T00:10:54;102687.38;;;-5.79;100.00
33189;BME280;52601;53.070;10.600;2022-12-18T00:13:44;102691.75;;;-5.76;100.00
33189;BME280;52601;53.070;10.600;2022-12-18T00:16:30;102696.31;;;-5.71;100.00
33189;BME280;52601;53.070;10.600;2022-12-18T00:19:18;102715.63;;;-5.76;100.00
33189;BME280;52601;53.070;10.600;2022-12-18T00:22:03;102699.38;;;-6.11;100.00
33189;BME280;52601;53.070;10.600;2022-12-18T00:24:49;102705.19;;;-6.14;100.00
33189;BME280;52601;53.070;10.600;2022-12-18T00:27:34;102720.34;;;-6.17;100.00
33189;BME280;52601;53.070;10.600;2022-12-18T00:30:19;102707.72;;;-6.30;100.00
33189;BME280;52601;53.070;10.600;2022-12-18T00:33:05;102695.63;;;-6.34;100.00
33189;BME280;52601;53.070;10.600;2022-12-18T00:35:51;102725.91;;;-6.24;100.00
33189;BME280;52601;53.070;10.600;2022-12-18T00:38:37;102731.31;;;-6.02;100.00
33189;BME280;52601;53.070;10.600;2022-12-18T00:41:23;102725.13;;;-6.07;100.00
33189;BME280;52601;53.070;10.600;2022-12-18T00:44:31;102711.53;;;-6.06;100.00
33189;BME280;52601;53.070;10.600;2022-12-18T00:47:17;102721.44;;;-5.78;100.00
33189;BME280;52601;53.070;10.600;2022-12-18T00:50:03;102698.56;;;-5.77;100.00
33189;BME280;52601;53.070;10.600;2022-12-18T00:52:49;102716.56;;;-5.74;100.00
33189;BME280;52601;53.070;10.600;2022-12-18T00:55:37;102695.19;;;-5.76;100.00
33189;BME280;52601;53.070;10.600;2022-12-18T00:58:23;102694.88;;;-5.99;100.00
33189;BME280;52601;53.070;10.600;2022-12-18T01:01:08;102711.03;;;-5.83;100.00
33189;BME280;52601;53.070;10.600;2022-12-18T01:03:54;102724.63;;;-6.16;100.00
33189;BME280;52601;53.070;10.600;2022-12-18T01:06:40;102739.63;;;-6.22;100.00
33189;BME280;52601;53.070;10.600;2022-12-18T01:09:25;102736.84;;;-6.43;100.00
33189;BME280;52601;53.070;10.600;2022-12-18T01:12:11;102737.00;;;-6.40;100.00
33189;BME280;52601;53.070;10.600;2022-12-18T01:14:57;102745.22;;;-6.29;100.00
33189;BME280;52601;53.070;10.600;2022-12-18T01:17:42;102755.44;;;-6.29;100.00
33189;BME280;52601;53.070;10.600;2022-12-18T01:20:28;102735.66;;;-6.33;100.00
33189;BME280;52601;53.070;10.600;2022-12-18T01:23:14;102715.72;;;-6.24;100.00
33189;BME280;52601;53.070;10.600;2022-12-18T01:26:07;102732.16;;;-6.19;100.00
33189;BME280;52601;53.070;10.600;2022-12-18T01:28:57;102761.50;;;-6.11;100.00
33189;BME280;52601;53.070;10.600;2022-12-18T01:31:42;102735.25;;;-6.25;100.00
33189;BME280;52601;53.070;10.600;2022-12-18T01:34:28;102730.88;;;-6.27;100.00
33189;BME280;52601;53.070;10.600;2022-12-18T01:37:13;102729.03;;;-6.46;100.00
33189;BME280;52601;53.070;10.600;2022-12-18T01:39:58;102750.97;;;-6.33;100.00
33189;BME280;52601;53.070;10.600;2022-12-18T01:42:44;102745.69;;;-6.52;100.00
33189;BME280;52601;53.070;10.600;2022-12-18T01:45:31;102746.09;;;-6.45;100.00
33189;BME280;52601;53.070;10.600;2022-12-18T01:48:17;102745.22;;;-6.45;100.00
33189;BME280;52601;53.070;10.600;2022-12-18T01:51:04;102746.31;;;-6.24;100.00
33189;BME280;52601;53.070;10.600;2022-12-18T01:53:51;102738.78;;;-6.23;100.00
33189;BME280;52601;53.070;10.600;2022-12-18T01:56:37;102719.94;;;-6.41;100.00
33189;BME280;52601;53.070;10.600;2022-12-18T01:59:22;102723.50;;;-6.69;100.00
33189;BME280;52601;53.070;10.600;2022-12-18T02:02:09;102715.38;;;-6.78;100.00
33189;BME280;52601;53.070;10.600;2022-12-18T02:04:56;102722.84;;;-6.81;100.00
33189;BME280;52601;53.070;10.600;2022-12-18T02:11:52;102739.31;;;-6.60;100.00
33189;BME280;52601;53.070;10.600;2022-12-18T02:14:37;102713.28;;;-6.85;100.00
33189;BME280;52601;53.070;10.600;2022-12-18T02:17:47;102742.06;;;-6.72;100.00
33189;BME280;52601;53.070;10.600;2022-12-18T02:20:45;102752.53;;;-6.82;100.00
33189;BME280;52601;53.070;10.600;2022-12-18T02:32:14;102706.50;;;-7.16;100.00
33189;BME280;52601;53.070;10.600;2022-12-18T02:35:02;102752.97;;;-7.05;100.00
33189;BME280;52601;53.070;10.600;2022-12-18T02:37:49;102741.53;;;-7.12;100.00
33189;BME280;52601;53.070;10.600;2022-12-18T02:40:40;102740.84;;;-7.09;100.00
33189;BME280;52601;53.070;10.600;2022-12-18T02:43:27;102751.69;;;-6.82;100.00
33189;BME280;52601;53.070;10.600;2022-12-18T02:46:31;102765.00;;;-6.72;100.00
33189;BME280;52601;53.070;10.600;2022-12-18T02:49:35;102772.97;;;-6.66;100.00
33189;BME280;52601;53.070;10.600;2022-12-18T02:58:15;102772.19;;;-6.65;100.00
33189;BME280;52601;53.070;10.600;2022-12-18T03:01:14;102768.13;;;-6.61;100.00
33189;BME280;52601;53.070;10.600;2022-12-18T03:04:06;102774.69;;;-6.66;100.00
33189;BME280;52601;53.070;10.600;2022-12-18T03:06:59;102768.75;;;-6.65;100.00
33189;BME280;52601;53.070;10.600;2022-12-18T03:09:50;102773.69;;;-6.99;100.00
33189;BME280;52601;53.070;10.600;2022-12-18T03:12:40;102776.03;;;-6.87;100.00
33189;BME280;52601;53.070;10.600;2022-12-18T03:15:31;102768.59;;;-6.99;100.00
33189;BME280;52601;53.070;10.600;2022-12-18T03:18:25;102765.44;;;-7.10;100.00
33189;BME280;52601;53.070;10.600;2022-12-18T03:21:14;102768.88;;;-7.09;100.00
33189;BME280;52601;53.070;10.600;2022-12-18T03:24:02;102766.59;;;-7.19;100.00
33189;BME280;52601;53.070;10.600;2022-12-18T03:26:53;102774.22;;;-7.05;100.00
33189;BME280;52601;53.070;10.600;2022-12-18T03:29:46;102763.69;;;-7.11;100.00
33189;BME280;52601;53.070;10.600;2022-12-18T03:32:58;102764.66;;;-7.09;100.00
33189;BME280;52601;53.070;10.600;2022-12-18T03:35:47;102771.69;;;-7.05;100.00
33189;BME280;52601;53.070;10.600;2022-12-18T03:38:33;102762.31;;;-7.20;100.00
33189;BME280;52601;53.070;10.600;2022-12-18T03:41:27;102782.50;;;-7.23;100.00
33189;BME280;52601;53.070;10.600;2022-12-18T03:44:24;102761.63;;;-7.47;100.00
33189;BME280;52601;53.070;10.600;2022-12-18T03:47:29;102775.75;;;-7.23;100.00
33189;BME280;52601;53.070;10.600;2022-12-18T03:50:21;102762.03;;;-7.25;100.00
33189;BME280;52601;53.070;10.600;2022-12-18T03:55:57;102787.06;;;-7.47;100.00
33189;BME280;52601;53.070;10.600;2022-12-18T03:58:45;102771.09;;;-7.59;100.00
33189;BME280;52601;53.070;10.600;2022-12-18T04:01:35;102757.94;;;-7.52;100.00
33189;BME280;52601;53.070;10.600;2022-12-18T04:04:24;102771.16;;;-7.57;100.00
33189;BME280;52601;53.070;10.600;2022-12-18T04:07:10;102783.38;;;-7.37;100.00
33189;BME280;52601;53.070;10.600;2022-12-18T04:09:58;102783.91;;;-7.43;100.00
33189;BME280;52601;53.070;10.600;2022-12-18T04:12:46;102795.94;;;-7.55;100.00
33189;BME280;52601;53.070;10.600;2022-12-18T04:15:34;102797.63;;;-7.41;100.00
33189;BME280;52601;53.070;10.600;2022-12-18T04:18:21;102758.72;;;-7.53;100.00
33189;BME280;52601;53.070;10.600;2022-12-18T04:21:06;102796.03;;;-7.39;100.00
33189;BME280;52601;53.070;10.600;2022-12-18T04:23:52;102774.78;;;-7.39;100.00
33189;BME280;52601;53.070;10.600;2022-12-18T04:26:38;102778.66;;;-7.60;100.00
33189;BME280;52601;53.070;10.600;2022-12-18T04:29:23;102780.41;;;-7.45;100.00
33189;BME280;52601;53.070;10.600;2022-12-18T04:32:08;102763.44;;;-7.59;100.00
33189;BME280;52601;53.070;10.600;2022-12-18T04:34:54;102784.97;;;-7.54;100.00
33189;BME280;52601;53.070;10.600;2022-12-18T04:37:39;102785.50;;;-7.45;100.00
33189;BME280;52601;53.070;10.600;2022-12-18T04:40:25;102768.63;;;-7.57;100.00
33189;BME280;52601;53.070;10.600;2022-12-18T04:43:11;102792.25;;;-7.45;100.00
33189;BME280;52601;53.070;10.600;2022-12-18T04:46:05;102788.72;;;-7.47;100.00
33189;BME280;52601;53.070;10.600;2022-12-18T04:48:50;102794.00;;;-7.59;100.00
33189;BME280;52601;53.070;10.600;2022-12-18T04:51:36;102802.59;;;-7.57;100.00
33189;BME280;52601;53.070;10.600;2022-12-18T04:54:22;102794.88;;;-7.73;100.00
33189;BME280;52601;53.070;10.600;2022-12-18T04:57:09;102795.53;;;-7.90;100.00
33189;BME280;52601;53.070;10.600;2022-12-18T04:59:54;102794.41;;;-7.80;100.00
33189;BME280;52601;53.070;10.600;2022-12-18T05:02:40;102771.78;;;-8.18;100.00
33189;BME280;52601;53.070;10.600;2022-12-18T05:05:26;102783.97;;;-8.13;100.00
33189;BME280;52601;53.070;10.600;2022-12-18T05:08:12;102755.56;;;-8.20;100.00
33189;BME280;52601;53.070;10.600;2022-12-18T05:11:07;102776.00;;;-7.76;100.00
33189;BME280;52601;53.070;10.600;2022-12-18T05:13:52;102765.19;;;-7.87;100.00
33189;BME280;52601;53.070;10.600;2022-12-18T05:16:38;102755.41;;;-8.09;100.00
33189;BME280;52601;53.070;10.600;2022-12-18T05:19:24;102776.94;;;-7.89;100.00
33189;BME280;52601;53.070;10.600;2022-12-18T05:22:09;102780.13;;;-7.78;100.00
33189;BME280;52601;53.070;10.600;2022-12-18T05:24:55;102779.66;;;-7.71;100.00
33189;BME280;52601;53.070;10.600;2022-12-18T05:27:41;102788.75;;;-7.62;100.00
33189;BME280;52601;53.070;10.600;2022-12-18T05:30:26;102786.81;;;-7.66;100.00
33189;BME280;52601;53.070;10.600;2022-12-18T05:33:12;102802.59;;;-7.57;100.00
33189;BME280;52601;53.070;10.600;2022-12-18T05:36:00;102799.78;;;-7.61;100.00
33189;BME280;52601;53.070;10.600;2022-12-18T05:38:47;102761.94;;;-7.84;100.00
33189;BME280;52601;53.070;10.600;2022-12-18T05:41:33;102814.59;;;-7.83;100.00
33189;BME280;52601;53.070;10.600;2022-12-18T05:44:18;102804.66;;;-7.94;100.00
33189;BME280;52601;53.070;10.600;2022-12-18T05:47:04;102824.31;;;-7.91;100.00
33189;BME280;52601;53.070;10.600;2022-12-18T05:49:49;102834.34;;;-8.07;100.00
33189;BME280;52601;53.070;10.600;2022-12-18T05:52:35;102817.41;;;-8.21;100.00
33189;BME280;52601;53.070;10.600;2022-12-18T05:55:20;102828.72;;;-8.16;100.00
33189;BME280;52601;53.070;10.600;2022-12-18T05:58:07;102822.34;;;-8.37;100.00
33189;BME280;52601;53.070;10.600;2022-12-18T06:00:53;102839.19;;;-8.39;100.00
33189;BME280;52601;53.070;10.600;2022-12-18T06:03:39;102827.53;;;-8.36;100.00
33189;BME280;52601;53.070;10.600;2022-12-18T06:06:27;102829.38;;;-8.33;100.00
33189;BME280;52601;53.070;10.600;2022-12-18T06:09:13;102814.97;;;-8.33;100.00
33189;BME280;52601;53.070;10.600;2022-12-18T06:11:58;102818.25;;;-8.21;100.00
33189;BME280;52601;53.070;10.600;2022-12-18T06:14:44;102837.47;;;-8.11;100.00
33189;BME280;52601;53.070;10.600;2022-12-18T06:17:32;102804.81;;;-8.33;100.00
33189;BME280;52601;53.070;10.600;2022-12-18T06:20:18;102829.50;;;-8.17;100.00
33189;BME280;52601;53.070;10.600;2022-12-18T06:23:05;102815.09;;;-8.04;100.00
33189;BME280;52601;53.070;10.600;2022-12-18T06:25:50;102796.44;;;-8.17;100.00
33189;BME280;52601;53.070;10.600;2022-12-18T06:28:36;102832.69;;;-8.07;100.00
33189;BME280;52601;53.070;10.600;2022-12-18T06:31:22;102830.81;;;-8.09;100.00
33189;BME280;52601;53.070;10.600;2022-12-18T06:34:08;102826.97;;;-8.17;100.00
33189;BME280;52601;53.070;10.600;2022-12-18T06:36:53;102832.53;;;-8.37;100.00
33189;BME280;52601;53.070;10.600;2022-12-18T06:39:39;102852.47;;;-8.43;100.00
33189;BME280;52601;53.070;10.600;2022-12-18T06:42:24;102840.56;;;-8.57;100.00
33189;BME280;52601;53.070;10.600;2022-12-18T06:45:10;102828.84;;;-8.82;100.00
33189;BME280;52601;53.070;10.600;2022-12-18T06:47:57;102863.63;;;-8.54;100.00
33189;BME280;52601;53.070;10.600;2022-12-18T06:50:43;102852.97;;;-8.62;100.00
33189;BME280;52601;53.070;10.600;2022-12-18T06:53:29;102858.16;;;-8.73;100.00
33189;BME280;52601;53.070;10.600;2022-12-18T06:56:15;102860.69;;;-8.60;100.00
33189;BME280;52601;53.070;10.600;2022-12-18T06:59:00;102870.53;;;-8.39;100.00
33189;BME280;52601;53.070;10.600;2022-12-18T07:01:46;102853.63;;;-8.38;100.00
33189;BME280;52601;53.070;10.600;2022-12-18T07:04:32;102861.56;;;-8.47;100.00
33189;BME280;52601;53.070;10.600;2022-12-18T07:07:17;102872.53;;;-8.48;100.00
33189;BME280;52601;53.070;10.600;2022-12-18T07:10:03;102857.06;;;-8.51;100.00
33189;BME280;52601;53.070;10.600;2022-12-18T07:12:49;102874.19;;;-8.61;100.00
33189;BME280;52601;53.070;10.600;2022-12-18T07:15:34;102872.31;;;-8.51;100.00
33189;BME280;52601;53.070;10.600;2022-12-18T07:18:20;102879.34;;;-8.47;100.00
33189;BME280;52601;53.070;10.600;2022-12-18T07:21:07;102891.09;;;-8.62;100.00
33189;BME280;52601;53.070;10.600;2022-12-18T07:23:53;102877.31;;;-8.65;100.00
33189;BME280;52601;53.070;10.600;2022-12-18T07:26:39;102892.38;;;-8.55;100.00
33189;BME280;52601;53.070;10.600;2022-12-18T07:29:24;102875.38;;;-8.69;100.00
33189;BME280;52601;53.070;10.600;2022-12-18T07:32:10;102900.97;;;-8.53;100.00
33189;BME280;52601;53.070;10.600;2022-12-18T07:34:56;102893.03;;;-8.32;100.00
33189;BME280;52601;53.070;10.600;2022-12-18T07:37:42;102900.78;;;-8.56;100.00
33189;BME280;52601;53.070;10.600;2022-12-18T07:40:27;102887.28;;;-8.55;100.00
33189;BME280;52601;53.070;10.600;2022-12-18T07:43:13;102884.44;;;-8.60;100.00
33189;BME280;52601;53.070;10.600;2022-12-18T07:45:58;102930.88;;;-8.62;100.00
33189;BME280;52601;53.070;10.600;2022-12-18T07:48:44;102914.47;;;-8.54;100.00
33189;BME280;52601;53.070;10.600;2022-12-18T07:51:34;102907.50;;;-8.57;100.00
33189;BME280;52601;53.070;10.600;2022-12-18T07:54:19;102915.88;;;-8.19;100.00
33189;BME280;52601;53.070;10.600;2022-12-18T07:57:05;102904.63;;;-8.22;100.00
33189;BME280;52601;53.070;10.600;2022-12-18T08:00:13;102914.69;;;-8.11;100.00
33189;BME280;52601;53.070;10.600;2022-12-18T08:02:59;102899.41;;;-8.38;100.00
33189;BME280;52601;53.070;10.600;2022-12-18T08:05:45;102920.25;;;-8.03;100.00
33189;BME280;52601;53.070;10.600;2022-12-18T08:08:31;102921.03;;;-8.04;100.00
33189;BME280;52601;53.070;10.600;2022-12-18T08:11:16;102918.28;;;-7.94;100.00
33189;BME280;52601;53.070;10.600;2022-12-18T08:14:03;102901.53;;;-7.91;100.00
33189;BME280;52601;53.070;10.600;2022-12-18T08:16:48;102913.56;;;-7.60;100.00
33189;BME280;52601;53.070;10.600;2022-12-18T08:19:34;102901.91;;;-7.57;100.00
33189;BME280;52601;53.070;10.600;2022-12-18T08:22:20;102864.75;;;-7.68;100.00
33189;BME280;52601;53.070;10.600;2022-12-18T08:25:06;102881.56;;;-7.42;100.00
33189;BME280;52601;53.070;10.600;2022-12-18T08:27:51;102881.75;;;-7.25;100.00
33189;BME280;52601;53.070;10.600;2022-12-18T08:30:37;102870.84;;;-7.37;100.00
33189;BME280;52601;53.070;10.600;2022-12-18T08:33:23;102859.00;;;-7.07;100.00
33189;BME280;52601;53.070;10.600;2022-12-18T08:36:09;102881.50;;;-6.56;100.00
33189;BME280;52601;53.070;10.600;2022-12-18T08:38:56;102873.38;;;-6.49;100.00
33189;BME280;52601;53.070;10.600;2022-12-18T08:41:42;102876.53;;;-6.39;100.00
33189;BME280;52601;53.070;10.600;2022-12-18T08:44:27;102862.59;;;-6.29;100.00
33189;BME280;52601;53.070;10.600;2022-12-18T08:47:24;102849.31;;;-6.07;100.00
33189;BME280;52601;53.070;10.600;2022-12-18T08:50:11;102868.25;;;-5.70;100.00
33189;BME280;52601;53.070;10.600;2022-12-18T08:52:57;102849.69;;;-5.68;100.00
33189;BME280;52601;53.070;10.600;2022-12-18T08:55:42;102859.38;;;-5.45;99.50
33189;BME280;52601;53.070;10.600;2022-12-18T08:58:34;102867.88;;;-5.46;98.61
33189;BME280;52601;53.070;10.600;2022-12-18T09:01:21;102872.34;;;-5.08;97.95
33189;BME280;52601;53.070;10.600;2022-12-18T09:04:08;102863.63;;;-4.95;96.13
33189;BME280;52601;53.070;10.600;2022-12-18T09:06:55;102833.41;;;-4.67;94.96
33189;BME280;52601;53.070;10.600;2022-12-18T09:09:40;102868.16;;;-4.00;94.75
33189;BME280;52601;53.070;10.600;2022-12-18T09:12:26;102861.47;;;-2.79;92.03
33189;BME280;52601;53.070;10.600;2022-12-18T09:15:11;102859.69;;;-1.47;87.97
33189;BME280;52601;53.070;10.600;2022-12-18T09:17:57;102858.34;;;-0.61;81.77
33189;BME280;52601;53.070;10.600;2022-12-18T09:20:43;102838.47;;;-0.92;75.95
33189;BME280;52601;53.070;10.600;2022-12-18T09:23:29;102866.19;;;-2.03;74.61
33189;BME280;52601;53.070;10.600;2022-12-18T09:26:14;102855.25;;;-2.21;75.62
33189;BME280;52601;53.070;10.600;2022-12-18T09:29:00;102876.75;;;-2.82;78.00
33189;BME280;52601;53.070;10.600;2022-12-18T09:31:45;102871.50;;;-2.85;79.30
33189;BME280;52601;53.070;10.600;2022-12-18T09:34:31;102874.91;;;-3.05;79.85
33189;BME280;52601;53.070;10.600;2022-12-18T09:37:16;102834.19;;;-3.77;81.71
33189;BME280;52601;53.070;10.600;2022-12-18T09:40:02;102849.78;;;-4.28;83.60
33189;BME280;52601;53.070;10.600;2022-12-18T09:42:56;102867.94;;;-3.86;85.80
33189;BME280;52601;53.070;10.600;2022-12-18T09:45:46;102875.63;;;-3.86;85.94
33189;BME280;52601;53.070;10.600;2022-12-18T09:48:37;102876.81;;;-3.79;86.46
33189;BME280;52601;53.070;10.600;2022-12-18T09:51:35;102853.13;;;-3.93;86.91
33189;BME280;52601;53.070;10.600;2022-12-18T09:54:31;102845.53;;;-3.72;86.66
33189;BME280;52601;53.070;10.600;2022-12-18T09:57:21;102869.03;;;-3.23;85.52
33189;BME280;52601;53.070;10.600;2022-12-18T10:00:20;102877.81;;;-3.18;84.70
33189;BME280;52601;53.070;10.600;2022-12-18T10:03:11;102884.47;;;-3.22;84.62
33189;BME280;52601;53.070;10.600;2022-12-18T10:06:13;102866.19;;;-3.10;84.84
33189;BME280;52601;53.070;10.600;2022-12-18T10:09:09;102873.38;;;-2.60;84.15
33189;BME280;52601;53.070;10.600;2022-12-18T10:15:21;102866.06;;;-0.61;75.89
33189;BME280;52601;53.070;10.600;2022-12-18T10:21:30;102869.66;;;-0.29;69.69
33189;BME280;52601;53.070;10.600;2022-12-18T10:28:07;102856.81;;;-0.28;70.30
33189;BME280;52601;53.070;10.600;2022-12-18T10:30:54;102849.28;;;0.69;68.19
33189;BME280;52601;53.070;10.600;2022-12-18T10:33:39;102863.63;;;2.38;65.51
33189;BME280;52601;53.070;10.600;2022-12-18T10:36:26;102842.06;;;2.85;61.23
33189;BME280;52601;53.070;10.600;2022-12-18T10:42:18;102876.41;;;3.78;56.47
33189;BME280;52601;53.070;10.600;2022-12-18T10:45:15;102872.09;;;3.79;55.32
33189;BME280;52601;53.070;10.600;2022-12-18T10:48:01;102873.31;;;3.45;55.26
33189;BME280;52601;53.070;10.600;2022-12-18T10:50:49;102884.69;;;4.85;54.88
33189;BME280;52601;53.070;10.600;2022-12-18T10:53:59;102875.69;;;5.43;52.15
33189;BME280;52601;53.070;10.600;2022-12-18T10:56:47;102851.06;;;6.28;50.75
33189;BME280;52601;53.070;10.600;2022-12-18T10:59:50;102867.75;;;5.26;50.91
33189;BME280;52601;53.070;10.600;2022-12-18T11:02:37;102855.63;;;5.28;52.72
33189;BME280;52601;53.070;10.600;2022-12-18T11:05:30;102816.06;;;5.77;51.88
33189;BME280;52601;53.070;10.600;2022-12-18T11:08:21;102848.44;;;6.22;49.29
33189;BME280;52601;53.070;10.600;2022-12-18T11:11:21;102849.72;;;4.54;50.79
33189;BME280;52601;53.070;10.600;2022-12-18T11:14:27;102847.41;;;3.46;52.75
33189;BME280;52601;53.070;10.600;2022-12-18T11:17:31;102832.22;;;2.66;55.70
33189;BME280;52601;53.070;10.600;2022-12-18T11:20:51;102838.13;;;3.61;58.32
33189;BME280;52601;53.070;10.600;2022-12-18T11:23:53;102851.03;;;4.19;56.72
33189;BME280;52601;53.070;10.600;2022-12-18T11:26:38;102862.25;;;4.16;56.28
33189;BME280;52601;53.070;10.600;2022-12-18T11:29:33;102849.94;;;4.02;56.39
33189;BME280;52601;53.070;10.600;2022-12-18T11:32:39;102845.38;;;4.53;55.20
33189;BME280;52601;53.070;10.600;2022-12-18T11:35:55;102845.72;;;4.88;54.80
33189;BME280;52601;53.070;10.600;2022-12-18T11:38:44;102846.22;;;4.51;54.99
33189;BME280;52601;53.070;10.600;2022-12-18T11:41:49;102851.31;;;3.76;56.45
33189;BME280;52601;53.070;10.600;2022-12-18T11:48:16;102844.56;;;3.88;57.95
33189;BME280;52601;53.070;10.600;2022-12-18T11:51:05;102824.84;;;4.01;57.00
33189;BME280;52601;53.070;10.600;2022-12-18T11:53:56;102823.56;;;3.13;58.42
33189;BME280;52601;53.070;10.600;2022-12-18T11:59:58;102841.97;;;1.55;62.35
33189;BME280;52601;53.070;10.600;2022-12-18T12:12:29;102812.09;;;3.01;60.81
33189;BME280;52601;53.070;10.600;2022-12-18T12:15:55;102817.28;;;3.56;60.88
33189;BME280;52601;53.070;10.600;2022-12-18T12:19:06;102804.78;;;4.64;58.95
33189;BME280;52601;53.070;10.600;2022-12-18T12:25:18;102792.94;;;3.45;59.57
33189;BME280;52601;53.070;10.600;2022-12-18T12:28:32;102785.84;;;2.80;61.83
33189;BME280;52601;53.070;10.600;2022-12-18T12:34:20;102773.19;;;1.62;65.76
33189;BME280;52601;53.070;10.600;2022-12-18T12:40:23;102758.16;;;2.76;64.96
33189;BME280;52601;53.070;10.600;2022-12-18T12:43:43;102773.03;;;1.95;65.13
33189;BME280;52601;53.070;10.600;2022-12-18T12:46:52;102765.84;;;1.80;66.13
33189;BME280;52601;53.070;10.600;2022-12-18T12:49:40;102757.53;;;1.54;66.45
33189;BME280;52601;53.070;10.600;2022-12-18T12:52:39;102756.38;;;1.03;68.82
33189;BME280;52601;53.070;10.600;2022-12-18T12:55:28;102750.97;;;0.26;71.50
33189;BME280;52601;53.070;10.600;2022-12-18T12:58:31;102746.13;;;-0.23;73.59
33189;BME280;52601;53.070;10.600;2022-12-18T13:04:35;102729.84;;;1.12;76.01
33189;BME280;52601;53.070;10.600;2022-12-18T13:07:32;102720.19;;;1.82;71.18
33189;BME280;52601;53.070;10.600;2022-12-18T13:13:13;102689.88;;;0.95;71.20
33189;BME280;52601;53.070;10.600;2022-12-18T13:16:05;102684.16;;;0.36;73.14
33189;BME280;52601;53.070;10.600;2022-12-18T13:18:52;102700.09;;;-0.11;75.25
33189;BME280;52601;53.070;10.600;2022-12-18T13:21:39;102693.97;;;-0.46;77.32
33189;BME280;52601;53.070;10.600;2022-12-18T13:24:27;102698.06;;;-0.80;79.47
33189;BME280;52601;53.070;10.600;2022-12-18T13:36:26;102714.75;;;-1.49;86.60
33189;BME280;52601;53.070;10.600;2022-12-18T13:45:40;102704.47;;;-1.49;87.06
33189;BME280;52601;53.070;10.600;2022-12-18T13:48:30;102705.97;;;-1.56;87.26
33189;BME280;52601;53.070;10.600;2022-12-18T13:51:18;102689.84;;;-1.77;87.94
33189;BME280;52601;53.070;10.600;2022-12-18T13:54:19;102698.66;;;-1.69;88.78
33189;BME280;52601;53.070;10.600;2022-12-18T13:57:33;102705.59;;;-1.92;89.82
33189;BME280;52601;53.070;10.600;2022-12-18T14:03:23;102691.09;;;-2.15;90.38
33189;BME280;52601;53.070;10.600;2022-12-18T14:06:11;102680.81;;;-2.15;91.73
33189;BME280;52601;53.070;10.600;2022-12-18T14:08:59;102692.56;;;-2.21;91.98
33189;BME280;52601;53.070;10.600;2022-12-18T14:11:49;102705.63;;;-2.15;92.63
33189;BME280;52601;53.070;10.600;2022-12-18T14:14:36;102682.59;;;-2.36;93.04
33189;BME280;52601;53.070;10.600;2022-12-18T14:17:22;102690.25;;;-2.37;93.29
33189;BME280;52601;53.070;10.600;2022-12-18T14:20:14;102701.75;;;-2.50;94.24
33189;BME280;52601;53.070;10.600;2022-12-18T14:23:00;102695.59;;;-2.55;95.02
33189;BME280;52601;53.070;10.600;2022-12-18T14:25:46;102700.66;;;-2.56;95.58
33189;BME280;52601;53.070;10.600;2022-12-18T14:28:32;102688.63;;;-2.81;96.43
33189;BME280;52601;53.070;10.600;2022-12-18T14:31:22;102679.97;;;-2.83;97.52
33189;BME280;52601;53.070;10.600;2022-12-18T14:34:15;102689.13;;;-2.68;97.67
33189;BME280;52601;53.070;10.600;2022-12-18T14:37:01;102692.22;;;-2.76;97.95
33189;BME280;52601;53.070;10.600;2022-12-18T14:42:42;102693.63;;;-2.84;98.73
33189;BME280;52601;53.070;10.600;2022-12-18T14:45:38;102691.22;;;-2.80;98.24
33189;BME280;52601;53.070;10.600;2022-12-18T14:51:27;102672.22;;;-3.07;99.21
33189;BME280;52601;53.070;10.600;2022-12-18T14:54:17;102663.91;;;-3.01;99.96
33189;BME280;52601;53.070;10.600;2022-12-18T14:57:15;102672.75;;;-2.93;99.99
33189;BME280;52601;53.070;10.600;2022-12-18T15:00:15;102667.16;;;-3.05;100.00
33189;BME280;52601;53.070;10.600;2022-12-18T15:03:07;102675.34;;;-3.14;100.00
33189;BME280;52601;53.070;10.600;2022-12-18T15:05:53;102673.72;;;-3.12;100.00
33189;BME280;52601;53.070;10.600;2022-12-18T15:08:38;102651.44;;;-3.14;100.00
33189;BME280;52601;53.070;10.600;2022-12-18T15:11:45;102662.16;;;-3.02;100.00
33189;BME280;52601;53.070;10.600;2022-12-18T15:14:38;102650.53;;;-3.15;100.00
33189;BME280;52601;53.070;10.600;2022-12-18T15:17:25;102635.19;;;-3.35;100.00
33189;BME280;52601;53.070;10.600;2022-12-18T15:20:11;102668.13;;;-3.24;100.00
33189;BME280;52601;53.070;10.600;2022-12-18T15:22:56;102662.00;;;-3.27;100.00
33189;BME280;52601;53.070;10.600;2022-12-18T15:25:42;102660.88;;;-3.34;100.00
33189;BME280;52601;53.070;10.600;2022-12-18T15:28:46;102633.56;;;-3.33;100.00
33189;BME280;52601;53.070;10.600;2022-12-18T15:31:34;102639.06;;;-3.24;100.00
33189;BME280;52601;53.070;10.600;2022-12-18T15:34:23;102632.16;;;-3.25;100.00
33189;BME280;52601;53.070;10.600;2022-12-18T15:37:09;102606.34;;;-3.30;100.00
33189;BME280;52601;53.070;10.600;2022-12-18T15:39:54;102616.69;;;-3.28;100.00
33189;BME280;52601;53.070;10.600;2022-12-18T15:42:41;102609.84;;;-3.50;100.00
33189;BME280;52601;53.070;10.600;2022-12-18T15:45:45;102607.53;;;-3.44;100.00
33189;BME280;52601;53.070;10.600;2022-12-18T15:48:37;102634.84;;;-3.44;100.00
33189;BME280;52601;53.070;10.600;2022-12-18T15:51:27;102625.97;;;-3.53;100.00
33189;BME280;52601;53.070;10.600;2022-12-18T15:54:14;102628.09;;;-3.42;100.00
33189;BME280;52601;53.070;10.600;2022-12-18T15:57:01;102589.22;;;-3.53;100.00
33189;BME280;52601;53.070;10.600;2022-12-18T16:00:05;102587.06;;;-3.42;100.00
33189;BME280;52601;53.070;10.600;2022-12-18T16:02:51;102584.75;;;-3.36;100.00